AREA preflight bulletin
Updated "live" 22 Aug 2019, 05:02

back to the map




METAR og TAF


NUUK
  AKTUEL BGGH 220450Z AUTO VRB03KT 9999NDV SCT006/// OVC018/// 06/04 Q1015=
  TAF 9 timer BGGH 220024Z 2200/2201 CNL=

KANGERLUSSUAQ
  AKTUEL BGSF 220450Z AUTO 25009KT 9999NDV FEW009/// BKN029/// OVC033/// 06/05 Q1014=
  TAF 24 timer BGSF 212257Z 2200/2306 26008KT 9999 BKN040 TEMPO 2200/2213 -SHRA FEW012 BKN020 TEMPO 2213/2224 -SHRA BKN025 TEMPO 2300/2306 BKN030=

KULUSUK
  AKTUEL BGKK 220450Z AUTO 24001KT 9999NDV BKN080/// 07/M00 Q1013=
  TAF 9 timer BGKK 211756Z 2118/2123 VRB08KT 9999 FEW020 TEMPO 2118/2123 BKN080=

NERLERIT INAAT
  AKTUEL BGCO 220450Z AUTO 32003KT //// BKN061/// 02/M01 Q1013=
  TAF 9 timer BGCO 211812Z 2118/2119 CNL=

KEFLAVIK
  AKTUEL BIKF 220430Z 05004KT CAVOK 10/07 Q1003=
  TAF 24 timer BIKF 220410Z 2206/2306 03008KT 9999 FEW025 BKN055 TX15/2215Z TN08/2206Z BECMG 2213/2215 26008KT -SHRA BECMG 2300/2302 20009KT=

REYKJAVIK
  AKTUEL BIRK 220400Z 10007KT CAVOK 12/03 Q1003=
  TAF 24 timer BIRK 220410Z 2206/2306 10007KT 9999 FEW040 BKN060 TX15/2215Z TN09/2306Z BECMG 2213/2215 30007KT -SHRA BECMG 2300/2302 20009KT=

AKUREYRI
  AKTUEL BIAR 220400Z 30004KT 9999 OVC045 10/05 Q1007=
  TAF 24 timer BIAR 220410Z 2206/2306 04005KT 9999 OVC045 TX14/2215Z TN06/2306Z=


SIGMETS:

Ingen SIGMET fundet:

NOTAM/SNOWTAM for operationel use has to be confirmed with the
nearest AIS Briefing Office prior to a flight.

ICAO
BGGH (NUUK)

FIR
BGGL

Notam_id:
BGB0526/19

valid from:
1907311807

E) BGGH AFIS FREQ 119.100 MHZ NO COVERAGE IN SECTOR BETWEEN 060 DEG MAG AND 210 DEG MAG BELOW FL100.

valid to:
1908311900


Replacing:
BGB0070/19

ICAO
BGGH (NUUK)

FIR
BGGL

Notam_id:
BGB0499/19

valid from:
1907111317

E) ERROR IN CHART FOR RNAV (GNSS) APPROACH RWY 23. WITH REF AIP GREENLAND AD 2-BGGH RNAV (GNSS) RWY 23-1. NEW OCA(H) LNAV/VNAV CLIMB 2.5 PERCENT CAT A TO READ 1310 (1029) INSTEAD OF 1230. NEW OCA(H) LNAV/VNAV CLIMB 2.5 PERCENT CAT B TO READ 1340 (1059) INSTEAD OF 1250. NEW OCA(H) LNAV/VNAV CLIMB 5.0 PERCENT CAT A TO READ 1300 (1019) INSTEAD OF 1070. NEW OCA(H) LNAV/VNAV CLIMB 5.0 PERCENT CAT B TO READ 1320 (1039) INSTEAD OF 1110. NEW OCA(H) LNAV CLIMB 5.0 PERCENT CAT A TO READ 1150 (869) IN-STEAD OF 1130. NEW OCA(H) LNAV CLIMB 5.0 PERCENT CAT B TO READ 1240 (959) INSTEAD OF 1230.

valid to:
1909112359


Replacing:
BGB0930/17

ICAO
BGGH (NUUK)

FIR
BGGL

Notam_id:
BGB0529/19

valid from:
1908011154

E) STAND 3 AND 4 CAN NOT RUN 2 HEATERS SIMULTANEOUSLY WHILE RUNNING 2 GPU'S.

valid to:
2004301200EST


Replacing:
BGB0446/19

ICAO
BGGH (NUUK)

FIR
BGGL

Notam_id:
BGB0358/19

valid from:
1905151005

E) FIREFIGHTING AND RESCUE LIMITED TO: CAT5 PPR 3 HR BEFORE LANDING OR DEPARTURE FOR ALL TRAFFIC OVER 10 TONS AND ABOVE 19 PASSENGERS, EXCEPT SCHEDULED TRAFFIC.

valid to:
PERM


Replacing:
BGB0350/19

ICAO
BGGH (NUUK)

FIR
BGGL

Notam_id:
BGB0503/19

valid from:
1909120000

E) TRIGGER NOTAM - PERM AIP AIRAC AMDT 06/19 WEF 12 SEP 2019. IAC RNAV (GNSS) RWY 23 RENAMED TO RNP RWY 23 AND PROCEDURE UPDATED (E.G. VARIATION CHANGED, WAYPOINTS GHT23 AND GHM23 WITHDRAWN, NEW WAYPOINTS ADDED.).

valid to:
1909252359




ICAO
BGGH (NUUK)

FIR
BGGL

Notam_id:
BGB0448/19

valid from:
1908150000

E) TRIGGER NOTAM - PERM AIP AIRAC AMDT 05/19 WEF 15 AUG 2019. CHANGES TO RESCUE AND FIRE FIGHTING SERVICE.

valid to:
1908282359




ICAO
BGSF (KANGERLUSSUAQ)

FIR
BGGL

Notam_id:
BGA0314/19

valid from:
1908150000

E) TRIGGER NOTAM - PERM AIP AIRAC AMDT 05/19 WEF 15 AUG 2019. NEW REMARK CONCERNING PCN.

valid to:
1908282359




ICAO
BGKK (KULUSUK)

FIR
BGGL

Notam_id:
BGB0491/19

valid from:
1907081858

E) LOC DA OBST LIGHTS LIL F R OUT OF SERVICE. PSN 653413N0371225W.

valid to:
1908311900EST


Replacing:
BGB0407/19

ICAO
BGKK (KULUSUK)

FIR
BGGL

Notam_id:
BGB0740/17

valid from:
1709221803

E) PAPI RWY 11 ANGLE CHANGED TO 3.40 DEG.

valid to:
PERM




ICAO
BGCO (NERLERIT INAAT)

FIR
BGGL

Notam_id:
BGB0539/19

valid from:
1908140841

E) SEA RESCUE NOT AVAILABLE.

valid to:
1910071600


Replacing:
BGB0806/18

ICAO
BGGL (SONDRESTROM FIR)

FIR
BGGL

Notam_id:
BGA0423/19

valid from:
1908232230

E) DUE TO DEBRIS FROM RUSSIAN ROCKET TEST, TEMPORARY DANGER AREA IS ESTABLISHED IN BGGL FIR WITHIN THE FOLLOWING LATERAL LIMITS: 8730N03200E 8707N01158E 8706N00031E 8843N03230E 8730N03200E. F) SFC G) FL195

valid to:
1908240530




ICAO
BGGL (SONDRESTROM FIR)

FIR
BGGL

Notam_id:
BGA0424/19

valid from:
1908242230

E) DUE TO DEBRIS FROM RUSSIAN ROCKET TEST, TEMPORARY DANGER AREA IS ESTABLISHED IN BGGL FIR WITHIN THE FOLLOWING LATERAL LIMITS: 8730N03200E 8707N01158E 8706N00031E 8843N03230E 8730N03200E. F) SFC G) FL195

valid to:
1908250530




ICAO
BGGL (SONDRESTROM FIR)

FIR
BGGL

Notam_id:
BGA0396/19

valid from:
1908010511

E) CHECKLIST YEAR=2017 0269 YEAR=2018 0199 YEAR=2019 0314 0316 0323 0363 0369 0371 0375 0377 0379 0381 0383 0385 0391 0392 0393 LATEST PUBLICATIONS AIP AIRAC AMDT IFR 006/2019 EFFECTIVE DATE 12 SEP 19 AIP AMDT IFR 003/2018 EFFECTIVE DATE 15 MAR 18 AIP SUP IFR 001/2019 EFFECTIVE DATE 06 JUN 19 AIC IFR A001/2019 EFFECTIVE DATE 17 JAN 19

valid to:
1909010511EST


Replacing:
BGA0395/19

ICAO
BGGL (SONDRESTROM FIR)

FIR
BGGL

Notam_id:
BGB0528/19

valid from:
1908010512

E) CHECKLIST YEAR=2017 0740 YEAR=2018 0806 YEAR=2019 0145 0207 0358 0416 0446 0448 0471 0488 0491 0496 0499 0503 0504 0506 0508 0524 0526 LATEST PUBLICATIONS AIP AIRAC AMDT IFR 006/2019 EFFECTIVE DATE 12 SEP 19 AIP AMDT IFR 003/2018 EFFECTIVE DATE 15 MAR 18 AIP SUP IFR 001/2019 EFFECTIVE DATE 06 JUN 19 AIC IFR A001/2019 EFFECTIVE DATE 17 JAN 19

valid to:
1909010512EST


Replacing:
BGB0527/19

ICAO
BGGL (SONDRESTROM FIR)

FIR
BGGL

Notam_id:
BGC0065/19

valid from:
1908010513

E) CHECKLIST YEAR=2018 0079 0081 YEAR=2019 0014 0015 0016 0017 0045 0046 0047 0049 0050 0062 0063 LATEST PUBLICATIONS AIP AIRAC AMDT IFR 006/2019 EFFECTIVE DATE 12 SEP 19 AIP AMDT IFR 003/2018 EFFECTIVE DATE 15 MAR 18 AIP SUP IFR 001/2019 EFFECTIVE DATE 06 JUN 19 AIC IFR A001/2019 EFFECTIVE DATE 17 JAN 19

valid to:
1909010513EST


Replacing:
BGC0064/19

ICAO
BGGL (SONDRESTROM FIR)

FIR
BGGL

Notam_id:
BGA0425/19

valid from:
1908260930

E) DUE TO DEBRIS FROM RUSSIAN ROCKET TEST, TEMPORARY DANGER AREA IS ESTABLISHED IN BGGL FIR WITHIN THE FOLLOWING LATERAL LIMITS: 8730N03200E 8707N01158E 8706N00031E 8843N03230E 8730N03200E. F) SFC G) FL195

valid to:
1908261730




ICAO
BGGL (SONDRESTROM FIR)

FIR
BGGL

Notam_id:
BGA0416/19

valid from:
1908141100

E) DIRECTION OF CRUISING LEVELS FOR RNP-ROUTE UT596 HAS BEEN CHANGED FROM EVEN TO ODD.

valid to:
1911062359




ICAO
BGGL (SONDRESTROM FIR)

FIR
BGGL

Notam_id:
BGA0363/19

valid from:
1909120000

E) TRIGGER NOTAM - PERM AIP AIRAC AMDT 06/19 WEF 12 SEP 2019. REF ENR 4.5: ABN KANGERSUATSIAQ ADDED AND CHANGES IN LOCATION/REMARKS AT SEVERAL ABN.

valid to:
1909252359




ICAO
BGGL (SONDRESTROM FIR)

FIR
BGGL

Notam_id:
BGA0199/18

valid from:
1805310935

E) GREENLAND AND ADJACENT WATERS ARE CONSIDERED HOSTILE AREAS BY THE CIVIL AVIATION AUTHORITY (TBST). THREE MAJOR REASONS CONTRIBUTE TO DEFINING THE AREA AS HOSTILE: A SAFE FORCED LANDING CANNOT BE ACCOMPLISHED BECAUSE THE SURFACE IS INADEQUATE. THE HELICOPTER OCCUPANTS CANNOT BE ADEQUATELY PROTECTED FROM THE ELEMENTS. SEARCH AND RESCUE RESPONSE/CAPABILITY ARE NOT PROVIDED CONSISTENT WITH ANTICIPATED EXPOSURE.

valid to:
PERM




ICAO
BIKF (KEFLAVIK)

FIR
BIRD

Notam_id:
BIA0202/19

valid from:
1906182359

E) STOP BARS NOT IN USE. REF: AIP ICELAND BIKF AD 2.23.6 AND BIKF AD 2.24.1.2-1 WITH THE EFFECTIVE 20 JUN.

valid to:
1909172359




ICAO
BIKF (KEFLAVIK)

FIR
BIRD

Notam_id:
BIA0374/19

valid from:
1908211745

E) N12 ENTRY CLOSED. STAND 1, 3, 5, 7, 9, 40, 42, 44, 46 CLOSED DUE TO WIP. REF. AIP ICELAND BIKF AD 2.24.1.2-1

valid to:
1908220500




ICAO
BIRK (REYKJAVIK)

FIR
BIRD

Notam_id:
BIA0326/19

valid from:
1907311542

E) GF LOCATOR 319 KHZ UNSERVICEABLE, DUE TO MAINTENANCE. REF: AIP BIRK AD 2.19.

valid to:
1908311600


Replacing:
BIA0276/19

ICAO
BIRK (REYKJAVIK)

FIR
BIRD

Notam_id:
BIA0305/19

valid from:
1907241519

E) CRANE ERECTED 882M SOUTH OF THRESHOLD RWY 01 AND 103M WEST OF EXTENDED CENTRELINE RWY 01. BOOM LENGTH IS 36M, ELEVATION 102 FEET. OBSTRUCTION IS LIT WITH OBS LGT. POSITION: 640652.96848N 0215612.98891W.

valid to:
1910092359


Replacing:
BIA0166/19

ICAO
BIRK (REYKJAVIK)

FIR
BIRD

Notam_id:
BIA0307/19

valid from:
1907241541

E) CRANE ERECTED 859M SOUTH OF THRESHOLD RWY 01 AND 53M WEST OF EXTENDED CENTRELINE RWY 01. BOOM LENGTH IS 60M, ELEVATION 102 FEET. OBSTRUCTION IS LIT WITH OBS LGT. POSITION: 640653.87832N 0215607.87308W

valid to:
1910092359


Replacing:
BIA0165/19

ICAO
BIAR (AKUREYRI)

FIR
BIRD

Notam_id:
BIA0361/19

valid from:
1908151545

E) FREQUENCY 118.7 IS INOP. REF: AIP ICELAND BIAR AD 2.18.

valid to:
1911142359


Replacing:
BIA0156/19


Copyright Naviair   2003-2016